createdAt,value
2016-11-12T00:00:00.476Z,76.86
2016-11-12T00:00:22.214Z,77.25
2016-11-12T00:00:43.939Z,76.53
2016-11-12T00:01:05.705Z,76.46
2016-11-12T00:01:27.439Z,76.97
2016-11-12T00:01:49.162Z,77.12
2016-11-12T00:02:10.887Z,77.21
2016-11-12T00:02:32.632Z,77.10
2016-11-12T00:02:54.372Z,77.18
2016-11-12T00:03:18.326Z,76.85
2016-11-12T00:03:40.052Z,77.06
2016-11-12T00:04:01.779Z,77.41
2016-11-12T00:04:23.509Z,77.22
2016-11-12T00:04:45.230Z,77.08
2016-11-12T00:05:06.975Z,77.09
2016-11-12T00:05:28.837Z,77.14
2016-11-12T00:05:50.562Z,77.13
2016-11-12T00:06:12.297Z,77.37
2016-11-12T00:06:34.018Z,77.13
2016-11-12T00:06:55.750Z,77.36
2016-11-12T00:07:17.520Z,77.35
2016-11-12T00:07:39.303Z,77.26
2016-11-12T00:08:01.032Z,77.32
2016-11-12T00:08:22.767Z,78.11
2016-11-12T00:08:44.493Z,77.49
2016-11-12T00:09:06.219Z,77.64
2016-11-12T00:09:27.950Z,77.66
2016-11-12T00:09:49.678Z,77.39
2016-11-12T00:10:11.417Z,77.36
2016-11-12T00:10:33.138Z,77.36
2016-11-12T00:10:54.867Z,77.36
2016-11-12T00:11:16.714Z,77.61
2016-11-12T00:11:38.441Z,77.82
2016-11-12T00:12:00.178Z,78.00
2016-11-12T00:12:21.906Z,78.11
2016-11-12T00:12:43.651Z,78.34
2016-11-12T00:13:05.373Z,78.57
2016-11-12T00:13:27.098Z,78.68
2016-11-12T00:13:48.829Z,78.71
2016-11-12T00:14:10.573Z,78.69
2016-11-12T00:14:32.420Z,78.99
2016-11-12T00:14:54.145Z,78.93
2016-11-12T00:15:15.875Z,78.87
2016-11-12T00:15:37.616Z,78.73
2016-11-12T00:15:59.349Z,78.42
2016-11-12T00:16:21.069Z,78.50
2016-11-12T00:16:42.792Z,78.31
2016-11-12T00:17:04.607Z,78.42
2016-11-12T00:17:26.339Z,78.59
2016-11-12T00:17:48.056Z,78.66
2016-11-12T00:18:09.933Z,78.86
2016-11-12T00:18:31.666Z,78.83
2016-11-12T00:18:53.390Z,78.75
2016-11-12T00:19:15.137Z,78.73
2016-11-12T00:19:36.871Z,78.68
2016-11-12T00:19:58.604Z,78.76
2016-11-12T00:20:20.330Z,78.86
2016-11-12T00:20:42.088Z,79.24
2016-11-12T00:21:03.815Z,79.38
2016-11-12T00:21:25.541Z,79.54
2016-11-12T00:21:47.267Z,79.68
2016-11-12T00:22:08.995Z,79.20
2016-11-12T00:22:30.720Z,79.24
2016-11-12T00:22:52.468Z,79.33
2016-11-12T00:23:14.192Z,79.29
2016-11-12T00:23:35.944Z,79.52
2016-11-12T00:23:57.679Z,79.72
2016-11-12T00:24:19.407Z,79.85
2016-11-12T00:24:41.163Z,79.83
2016-11-12T00:25:02.897Z,79.84
2016-11-12T00:25:24.627Z,79.85
2016-11-12T00:25:46.360Z,79.81
2016-11-12T00:26:08.084Z,79.94
2016-11-12T00:26:29.829Z,79.55
2016-11-12T00:26:51.551Z,79.54
2016-11-12T00:27:13.288Z,79.48
2016-11-12T00:27:35.012Z,79.42
2016-11-12T00:27:56.751Z,79.21
2016-11-12T00:28:18.490Z,79.24
2016-11-12T00:28:40.213Z,79.44
2016-11-12T00:29:01.952Z,79.25
2016-11-12T00:29:23.678Z,79.27
2016-11-12T00:29:45.419Z,79.57
2016-11-12T00:30:07.153Z,78.85
2016-11-12T00:30:28.906Z,78.86
2016-11-12T00:30:50.639Z,78.82
2016-11-12T00:31:12.419Z,78.91
2016-11-12T00:31:34.145Z,78.73
2016-11-12T00:31:55.901Z,78.70
2016-11-12T00:32:17.627Z,79.00
2016-11-12T00:32:39.364Z,79.06
2016-11-12T00:33:01.100Z,79.23
2016-11-12T00:33:22.828Z,79.26
2016-11-12T00:33:44.551Z,78.94
2016-11-12T00:34:06.281Z,79.08
2016-11-12T00:34:28.011Z,79.04
2016-11-12T00:34:49.731Z,79.33
2016-11-12T00:35:11.458Z,79.38
2016-11-12T00:35:33.197Z,78.93
2016-11-12T00:35:54.916Z,78.81
2016-11-12T00:36:16.674Z,78.42
2016-11-12T00:36:38.396Z,78.26
2016-11-12T00:37:00.123Z,78.27
2016-11-12T00:37:21.857Z,78.38
2016-11-12T00:37:43.610Z,78.63
2016-11-12T00:38:05.332Z,78.80
2016-11-12T00:38:27.061Z,78.83
2016-11-12T00:38:48.788Z,79.23
2016-11-12T00:39:10.507Z,79.06
2016-11-12T00:39:32.230Z,79.14
2016-11-12T00:39:53.966Z,78.70
2016-11-12T00:40:15.690Z,78.69
2016-11-12T00:40:37.414Z,79.16
2016-11-12T00:40:59.138Z,79.05
2016-11-12T00:41:20.873Z,78.74
2016-11-12T00:41:42.727Z,78.56
2016-11-12T00:42:04.454Z,78.99
2016-11-12T00:42:26.201Z,78.83
2016-11-12T00:42:47.923Z,78.64
2016-11-12T00:43:09.647Z,78.33
2016-11-12T00:43:31.382Z,78.46
2016-11-12T00:43:53.123Z,78.55
2016-11-12T00:44:14.846Z,78.85
2016-11-12T00:44:36.593Z,78.98
2016-11-12T00:44:58.322Z,78.95
2016-11-12T00:45:20.068Z,78.88
2016-11-12T00:45:41.788Z,78.99
2016-11-12T00:46:03.530Z,79.01
2016-11-12T00:46:25.382Z,79.02
2016-11-12T00:46:47.125Z,78.93
2016-11-12T00:47:08.853Z,78.74
2016-11-12T00:47:30.580Z,78.72
2016-11-12T00:47:52.309Z,78.64
2016-11-12T00:48:14.050Z,79.03
2016-11-12T00:48:35.792Z,79.08
2016-11-12T00:48:57.511Z,78.96
2016-11-12T00:49:19.250Z,78.92
2016-11-12T00:49:40.974Z,79.00
2016-11-12T00:50:02.709Z,79.03
2016-11-12T00:50:24.421Z,78.87
2016-11-12T00:50:46.148Z,79.05
2016-11-12T00:51:07.881Z,79.19
2016-11-12T00:51:29.611Z,79.40
2016-11-12T00:51:51.331Z,79.38
2016-11-12T00:52:13.078Z,79.41
2016-11-12T00:52:34.811Z,79.19
2016-11-12T00:52:56.539Z,79.38
2016-11-12T00:53:18.263Z,79.66
2016-11-12T00:53:39.997Z,79.75
2016-11-12T00:54:01.720Z,79.52
2016-11-12T00:54:23.450Z,79.63
2016-11-12T00:54:45.298Z,79.96
2016-11-12T00:55:07.050Z,79.49
2016-11-12T00:55:28.786Z,79.54
2016-11-12T00:55:50.507Z,79.67
2016-11-12T00:56:12.243Z,79.67
2016-11-12T00:56:33.967Z,79.69
2016-11-12T00:56:55.698Z,79.75
2016-11-12T00:57:17.432Z,79.95
2016-11-12T00:57:39.191Z,80.10
2016-11-12T00:58:00.919Z,80.21
2016-11-12T00:58:22.649Z,80.36
2016-11-12T00:58:44.392Z,80.56
2016-11-12T00:59:06.129Z,80.67
2016-11-12T00:59:27.889Z,80.75
2016-11-12T00:59:49.606Z,80.85
2016-11-12T01:00:11.333Z,80.97
2016-11-12T01:00:33.055Z,81.03
2016-11-12T01:00:54.781Z,81.17
2016-11-12T01:01:16.624Z,80.82
2016-11-12T01:01:38.357Z,80.84
2016-11-12T01:02:00.084Z,80.67
2016-11-12T01:02:21.819Z,80.51
2016-11-12T01:02:43.545Z,80.67
2016-11-12T01:03:05.282Z,80.68
2016-11-12T01:03:27.215Z,80.43
2016-11-12T01:03:48.961Z,80.49
2016-11-12T01:04:10.694Z,80.88
2016-11-12T01:04:32.406Z,80.80
2016-11-12T01:04:54.134Z,80.93
2016-11-12T01:05:15.864Z,81.14
2016-11-12T01:05:37.607Z,81.23
2016-11-12T01:05:59.327Z,81.28
2016-11-12T01:06:21.054Z,81.29
2016-11-12T01:06:42.775Z,81.21
2016-11-12T01:07:04.514Z,81.48
2016-11-12T01:07:26.240Z,81.69
2016-11-12T01:07:47.972Z,81.87
2016-11-12T01:08:09.720Z,82.01
2016-11-12T01:08:31.438Z,82.11
2016-11-12T01:08:53.175Z,82.00
2016-11-12T01:09:14.896Z,82.04
2016-11-12T01:09:36.635Z,82.00
2016-11-12T01:09:58.367Z,81.95
2016-11-12T01:10:20.088Z,81.75
2016-11-12T01:10:41.812Z,81.43
2016-11-12T01:11:03.539Z,81.35
2016-11-12T01:11:25.258Z,81.01
2016-11-12T01:11:46.987Z,80.68
2016-11-12T01:12:08.734Z,80.44
2016-11-12T01:12:30.459Z,80.47
2016-11-12T01:12:52.186Z,80.86
2016-11-12T01:13:13.921Z,81.42
2016-11-12T01:13:35.663Z,81.88
2016-11-12T01:13:57.391Z,82.36
2016-11-12T01:14:19.123Z,82.69
2016-11-12T01:14:40.856Z,82.96
2016-11-12T01:15:07.357Z,83.12
2016-11-12T01:15:29.095Z,83.20
2016-11-12T01:15:50.831Z,83.25
2016-11-12T01:16:12.636Z,83.27
2016-11-12T01:16:34.356Z,83.36
2016-11-12T01:16:56.101Z,83.36
2016-11-12T01:17:17.833Z,83.34
2016-11-12T01:17:39.564Z,83.47
2016-11-12T01:18:01.285Z,83.41
2016-11-12T01:18:23.013Z,83.54
2016-11-12T01:18:44.735Z,83.33
2016-11-12T01:19:06.464Z,83.18
2016-11-12T01:19:28.187Z,83.15
2016-11-12T01:19:49.913Z,83.33
2016-11-12T01:20:11.632Z,83.50
2016-11-12T01:20:33.357Z,83.47
2016-11-12T01:20:55.081Z,83.31
2016-11-12T01:21:16.810Z,83.38
2016-11-12T01:21:38.542Z,83.54
2016-11-12T01:22:00.269Z,83.68
2016-11-12T01:22:22.017Z,83.58
2016-11-12T01:22:43.740Z,83.39
2016-11-12T01:23:05.467Z,83.67
2016-11-12T01:23:27.250Z,83.55
2016-11-12T01:23:48.978Z,83.52
2016-11-12T01:24:10.709Z,83.31
2016-11-12T01:24:32.442Z,83.19
2016-11-12T01:24:54.180Z,83.18
2016-11-12T01:25:15.920Z,83.30
2016-11-12T01:25:37.636Z,83.52
2016-11-12T01:25:59.363Z,83.67
2016-11-12T01:26:21.106Z,83.83
2016-11-12T01:26:42.881Z,83.82
2016-11-12T01:27:04.621Z,84.04
2016-11-12T01:27:26.357Z,84.19
2016-11-12T01:27:48.073Z,84.36
2016-11-12T01:28:09.798Z,84.42
2016-11-12T01:28:31.524Z,84.60
2016-11-12T01:28:53.260Z,84.75
2016-11-12T01:29:14.999Z,84.57
2016-11-12T01:29:36.723Z,84.59
2016-11-12T01:29:58.462Z,84.77
2016-11-12T01:30:20.239Z,84.86
2016-11-12T01:30:41.967Z,84.87
2016-11-12T01:31:03.889Z,84.75
2016-11-12T01:31:25.526Z,84.50
2016-11-12T01:31:47.253Z,84.22
2016-11-12T01:32:08.980Z,84.11
2016-11-12T01:32:30.709Z,84.24
2016-11-12T01:32:52.450Z,84.33
2016-11-12T01:33:14.173Z,84.37
2016-11-12T01:33:35.904Z,84.46
2016-11-12T01:33:57.638Z,84.45
2016-11-12T01:34:19.368Z,84.36
2016-11-12T01:34:41.108Z,84.52
2016-11-12T01:35:02.836Z,84.61
2016-11-12T01:35:24.564Z,84.75
2016-11-12T01:35:46.374Z,84.82
2016-11-12T01:36:08.094Z,84.83
2016-11-12T01:36:29.833Z,84.94
2016-11-12T01:36:51.564Z,84.99
2016-11-12T01:37:13.302Z,85.08
2016-11-12T01:37:35.032Z,85.11
2016-11-12T01:37:56.761Z,85.22
2016-11-12T01:38:18.486Z,85.18
2016-11-12T01:38:40.229Z,85.32
2016-11-12T01:39:01.929Z,85.27
2016-11-12T01:39:23.651Z,85.34
2016-11-12T01:39:45.371Z,85.03
2016-11-12T01:40:07.104Z,84.97
2016-11-12T01:40:28.861Z,84.84
2016-11-12T01:40:53.185Z,84.34
2016-11-12T01:41:14.904Z,84.13
2016-11-12T01:41:36.630Z,84.16
2016-11-12T01:41:58.349Z,84.46
2016-11-12T01:42:20.081Z,84.42
2016-11-12T01:42:41.816Z,84.35
2016-11-12T01:43:03.540Z,84.26
2016-11-12T01:43:25.277Z,84.12
2016-11-12T01:43:47.006Z,84.09
2016-11-12T01:44:08.730Z,83.67
2016-11-12T01:44:30.480Z,83.46
2016-11-12T01:44:52.200Z,83.39
2016-11-12T01:45:13.923Z,83.44
2016-11-12T01:45:35.650Z,83.61
2016-11-12T01:45:57.370Z,83.54
2016-11-12T01:46:19.103Z,83.36
2016-11-12T01:46:40.832Z,83.49
2016-11-12T01:47:02.554Z,83.92
2016-11-12T01:47:24.282Z,84.27
2016-11-12T01:47:46.005Z,84.55
2016-11-12T01:48:07.741Z,84.66
2016-11-12T01:48:29.488Z,84.70
2016-11-12T01:48:51.232Z,84.77
2016-11-12T01:49:12.953Z,84.98
2016-11-12T01:49:34.675Z,84.81
2016-11-12T01:49:56.417Z,84.84
2016-11-12T01:50:18.152Z,84.57
2016-11-12T01:50:39.872Z,84.37
2016-11-12T01:51:01.705Z,83.85
2016-11-12T01:51:23.490Z,83.79
2016-11-12T01:51:45.211Z,83.79
2016-11-12T01:52:06.953Z,83.59
2016-11-12T01:52:28.678Z,83.54
2016-11-12T01:52:50.397Z,83.60
2016-11-12T01:53:12.127Z,83.65
2016-11-12T01:53:33.849Z,83.90
2016-11-12T01:53:55.578Z,84.03
2016-11-12T01:54:17.308Z,84.09
2016-11-12T01:54:39.171Z,84.36
2016-11-12T01:55:00.891Z,84.74
2016-11-12T01:55:22.611Z,84.96
2016-11-12T01:55:44.393Z,85.19
2016-11-12T01:56:06.131Z,84.82
2016-11-12T01:56:27.851Z,85.09
2016-11-12T01:56:49.578Z,84.77
2016-11-12T01:57:11.302Z,84.59
2016-11-12T01:57:33.030Z,84.01
2016-11-12T01:57:54.745Z,83.84
2016-11-12T01:58:16.489Z,83.65
2016-11-12T01:58:38.217Z,83.63
2016-11-12T01:59:00.000Z,83.73
2016-11-12T01:59:21.721Z,83.96
2016-11-12T01:59:43.442Z,84.09
2016-11-12T02:00:07.995Z,84.02
2016-11-12T02:00:29.711Z,83.89
2016-11-12T02:00:51.432Z,83.75
2016-11-12T02:01:13.157Z,83.70
2016-11-12T02:01:34.885Z,83.74
2016-11-12T02:01:56.603Z,83.70
2016-11-12T02:02:18.342Z,83.94
2016-11-12T02:02:40.075Z,84.08
2016-11-12T02:03:01.797Z,84.25
2016-11-12T02:03:23.531Z,84.39
2016-11-12T02:03:45.255Z,84.45
2016-11-12T02:04:06.987Z,84.46
2016-11-12T02:04:28.745Z,84.30
2016-11-12T02:04:50.486Z,84.13
2016-11-12T02:05:12.204Z,84.17
2016-11-12T02:05:33.935Z,84.30
2016-11-12T02:05:55.658Z,84.38
2016-11-12T02:06:17.380Z,84.54
2016-11-12T02:06:39.107Z,84.57
2016-11-12T02:07:00.827Z,84.56
2016-11-12T02:07:22.552Z,84.45
2016-11-12T02:07:44.280Z,84.23
2016-11-12T02:08:06.001Z,84.27
2016-11-12T02:08:27.733Z,84.24
2016-11-12T02:08:49.466Z,84.02
2016-11-12T02:09:11.208Z,83.73
2016-11-12T02:09:32.930Z,83.46
2016-11-12T02:09:54.657Z,83.11
2016-11-12T02:10:21.197Z,82.89
2016-11-12T02:10:42.912Z,82.73
2016-11-12T02:11:04.655Z,82.78
2016-11-12T02:11:26.372Z,82.48
2016-11-12T02:11:48.106Z,82.69
2016-11-12T02:12:09.825Z,82.70
2016-11-12T02:12:31.544Z,83.37
2016-11-12T02:12:53.277Z,83.36
2016-11-12T02:13:15.005Z,83.50
2016-11-12T02:13:36.725Z,83.21
2016-11-12T02:13:58.507Z,83.49
2016-11-12T02:14:20.239Z,83.25
2016-11-12T02:14:41.961Z,82.99
2016-11-12T02:15:03.694Z,82.93
2016-11-12T02:15:25.413Z,83.28
2016-11-12T02:15:47.145Z,83.68
2016-11-12T02:16:08.867Z,83.81
2016-11-12T02:16:30.593Z,83.85
2016-11-12T02:16:52.330Z,84.12
2016-11-12T02:17:14.055Z,84.22
2016-11-12T02:17:35.819Z,83.86
2016-11-12T02:17:57.542Z,83.72
2016-11-12T02:18:19.267Z,83.30
2016-11-12T02:18:40.989Z,83.22
2016-11-12T02:19:02.726Z,83.30
2016-11-12T02:19:24.454Z,83.46
2016-11-12T02:19:46.180Z,83.78
2016-11-12T02:20:07.903Z,83.59
2016-11-12T02:20:29.689Z,83.54
2016-11-12T02:20:51.416Z,83.37
2016-11-12T02:21:13.143Z,83.38
2016-11-12T02:21:34.866Z,83.30
2016-11-12T02:21:56.592Z,83.09
2016-11-12T02:22:18.315Z,82.99
2016-11-12T02:22:40.052Z,83.16
2016-11-12T02:23:01.772Z,83.31
2016-11-12T02:23:23.501Z,83.58
2016-11-12T02:23:45.226Z,83.54
2016-11-12T02:24:09.713Z,83.71
2016-11-12T02:24:31.442Z,83.94
2016-11-12T02:24:53.168Z,84.10
2016-11-12T02:25:14.886Z,84.09
2016-11-12T02:25:36.616Z,84.14
2016-11-12T02:25:58.341Z,83.93
2016-11-12T02:26:20.065Z,83.63
2016-11-12T02:26:41.797Z,83.42
2016-11-12T02:27:03.521Z,83.26
2016-11-12T02:27:25.243Z,83.08
2016-11-12T02:27:46.976Z,83.07
2016-11-12T02:28:08.694Z,83.08
2016-11-12T02:28:30.421Z,83.14
2016-11-12T02:28:52.149Z,83.04
2016-11-12T02:29:13.892Z,83.04
2016-11-12T02:29:35.615Z,83.07
2016-11-12T02:29:57.331Z,83.06
2016-11-12T02:30:19.051Z,83.25
2016-11-12T02:30:40.781Z,82.91
2016-11-12T02:31:02.506Z,82.87
2016-11-12T02:31:24.247Z,82.69
2016-11-12T02:31:45.952Z,82.41
2016-11-12T02:32:07.680Z,82.39
2016-11-12T02:32:29.402Z,82.12
2016-11-12T02:32:51.136Z,81.79
2016-11-12T02:33:12.865Z,81.44
2016-11-12T02:33:34.592Z,81.49
2016-11-12T02:33:56.313Z,81.61
2016-11-12T02:34:18.042Z,81.83
2016-11-12T02:34:39.774Z,81.68
2016-11-12T02:35:01.501Z,81.84
2016-11-12T02:35:23.277Z,82.21
2016-11-12T02:35:45.003Z,82.01
2016-11-12T02:36:06.781Z,82.02
2016-11-12T02:36:28.507Z,82.22
2016-11-12T02:36:50.237Z,81.90
2016-11-12T02:37:11.965Z,81.88
2016-11-12T02:37:33.691Z,81.90
2016-11-12T02:37:55.415Z,82.00
2016-11-12T02:38:17.143Z,82.19
2016-11-12T02:38:38.873Z,82.07
2016-11-12T02:39:00.602Z,82.13
2016-11-12T02:39:22.337Z,82.38
2016-11-12T02:39:44.064Z,82.30
2016-11-12T02:40:05.797Z,82.25
2016-11-12T02:40:27.583Z,81.98
2016-11-12T02:40:49.302Z,81.37
2016-11-12T02:41:11.028Z,81.35
2016-11-12T02:41:32.754Z,81.29
2016-11-12T02:41:54.477Z,81.53
2016-11-12T02:42:16.207Z,81.69
2016-11-12T02:42:37.934Z,82.01
2016-11-12T02:42:59.679Z,81.90
2016-11-12T02:43:21.407Z,81.93
2016-11-12T02:43:43.127Z,82.07
2016-11-12T02:44:04.853Z,82.17
2016-11-12T02:44:26.567Z,82.34
2016-11-12T02:44:48.300Z,82.34
2016-11-12T02:45:10.043Z,81.97
2016-11-12T02:45:31.773Z,81.41
2016-11-12T02:45:53.502Z,81.19
2016-11-12T02:46:15.231Z,81.29
2016-11-12T02:46:37.155Z,81.36
2016-11-12T02:46:58.884Z,81.57
2016-11-12T02:47:20.604Z,81.51
2016-11-12T02:47:42.354Z,81.28
2016-11-12T02:48:04.105Z,80.77
2016-11-12T02:48:25.834Z,80.62
2016-11-12T02:48:47.587Z,81.04
2016-11-12T02:49:09.309Z,81.05
2016-11-12T02:49:31.041Z,81.05
2016-11-12T02:49:52.770Z,80.92
2016-11-12T02:50:14.509Z,80.90
2016-11-12T02:50:36.221Z,80.77
2016-11-12T02:50:58.028Z,80.37
2016-11-12T02:51:19.755Z,80.59
2016-11-12T02:51:41.495Z,80.69
2016-11-12T02:52:03.221Z,80.76
2016-11-12T02:52:24.950Z,80.80
2016-11-12T02:52:46.675Z,80.92
2016-11-12T02:53:08.394Z,81.05
2016-11-12T02:53:30.128Z,80.87
2016-11-12T02:53:51.852Z,80.88
2016-11-12T02:54:13.570Z,80.72
2016-11-12T02:54:35.346Z,80.43
2016-11-12T02:54:57.066Z,80.53
2016-11-12T02:55:18.790Z,80.46
2016-11-12T02:55:40.582Z,80.19
2016-11-12T02:56:02.320Z,80.44
2016-11-12T02:56:24.060Z,80.44
2016-11-12T02:56:45.792Z,80.49
2016-11-12T02:57:07.513Z,80.14
2016-11-12T02:57:29.236Z,80.13
2016-11-12T02:57:50.996Z,80.54
2016-11-12T02:58:12.722Z,80.03
2016-11-12T02:58:34.451Z,79.75
2016-11-12T02:58:56.179Z,79.97
2016-11-12T02:59:17.912Z,80.04
2016-11-12T02:59:39.644Z,79.44
2016-11-12T03:00:01.436Z,79.67
2016-11-12T03:00:23.149Z,79.52
2016-11-12T03:00:44.901Z,79.48
2016-11-12T03:01:06.625Z,79.43
2016-11-12T03:01:28.367Z,79.72
2016-11-12T03:01:50.082Z,79.96
2016-11-12T03:02:11.808Z,80.03
2016-11-12T03:02:33.530Z,80.19
2016-11-12T03:02:57.796Z,80.24
2016-11-12T03:03:19.523Z,80.48
2016-11-12T03:03:41.252Z,80.09
2016-11-12T03:04:02.978Z,79.72
2016-11-12T03:04:24.700Z,79.22
2016-11-12T03:04:46.451Z,78.60
2016-11-12T03:05:08.169Z,78.80
2016-11-12T03:05:29.894Z,78.91
2016-11-12T03:05:51.636Z,79.41
2016-11-12T03:06:13.356Z,79.06
2016-11-12T03:06:35.102Z,78.95
2016-11-12T03:06:56.843Z,79.18
2016-11-12T03:07:18.566Z,79.17
2016-11-12T03:07:40.294Z,79.46
2016-11-12T03:08:02.035Z,79.85
2016-11-12T03:08:23.764Z,79.97
2016-11-12T03:08:45.504Z,80.06
2016-11-12T03:09:07.231Z,80.16
2016-11-12T03:09:28.967Z,80.18
2016-11-12T03:09:50.691Z,80.21
2016-11-12T03:10:12.419Z,80.32
2016-11-12T03:10:34.136Z,80.39
2016-11-12T03:10:55.860Z,80.10
2016-11-12T03:11:17.690Z,80.35
2016-11-12T03:11:39.416Z,80.12
2016-11-12T03:12:01.144Z,79.88
2016-11-12T03:12:22.877Z,79.77
2016-11-12T03:12:44.614Z,79.58
2016-11-12T03:13:06.342Z,79.40
2016-11-12T03:13:28.073Z,79.57
2016-11-12T03:13:49.798Z,79.48
2016-11-12T03:14:11.523Z,79.76
2016-11-12T03:14:33.253Z,79.37
2016-11-12T03:14:54.985Z,79.39
2016-11-12T03:15:16.707Z,79.75
2016-11-12T03:15:38.499Z,79.56
2016-11-12T03:16:00.230Z,79.42
2016-11-12T03:16:21.964Z,79.53
2016-11-12T03:16:43.701Z,79.73
2016-11-12T03:17:05.455Z,79.82
2016-11-12T03:17:27.192Z,80.01
2016-11-12T03:17:48.914Z,80.24
2016-11-12T03:18:10.654Z,80.22
2016-11-12T03:18:32.364Z,80.80
2016-11-12T03:18:54.087Z,80.70
2016-11-12T03:19:15.811Z,80.43
2016-11-12T03:19:37.535Z,80.34
2016-11-12T03:19:59.271Z,80.30
2016-11-12T03:20:21.040Z,80.32
2016-11-12T03:20:47.541Z,80.11
2016-11-12T03:21:09.261Z,79.95
2016-11-12T03:21:31.107Z,79.60
2016-11-12T03:21:52.834Z,79.41
2016-11-12T03:22:14.595Z,79.04
2016-11-12T03:22:36.331Z,79.09
2016-11-12T03:22:58.055Z,79.24
2016-11-12T03:23:19.780Z,79.03
2016-11-12T03:23:41.530Z,79.27
2016-11-12T03:24:03.258Z,79.64
2016-11-12T03:24:24.990Z,79.85
2016-11-12T03:24:46.719Z,79.72
2016-11-12T03:25:08.443Z,79.04
2016-11-12T03:25:30.173Z,78.86
2016-11-12T03:25:51.905Z,79.00
2016-11-12T03:26:13.625Z,79.25
2016-11-12T03:26:35.358Z,79.13
2016-11-12T03:26:57.075Z,79.42
2016-11-12T03:27:18.800Z,79.33
2016-11-12T03:27:40.528Z,79.03
2016-11-12T03:28:02.249Z,78.91
2016-11-12T03:28:24.029Z,78.34
2016-11-12T03:28:45.761Z,78.35
2016-11-12T03:29:07.495Z,78.17
2016-11-12T03:29:29.209Z,78.34
2016-11-12T03:29:50.928Z,78.00
2016-11-12T03:30:12.675Z,78.67
2016-11-12T03:30:34.416Z,78.64
2016-11-12T03:30:56.144Z,78.60
2016-11-12T03:31:17.869Z,78.06
2016-11-12T03:31:39.596Z,78.18
2016-11-12T03:32:01.314Z,78.25
2016-11-12T03:32:23.041Z,78.64
2016-11-12T03:32:44.784Z,78.68
2016-11-12T03:33:06.513Z,78.05
2016-11-12T03:33:28.246Z,78.14
2016-11-12T03:33:49.980Z,78.07
2016-11-12T03:34:11.701Z,78.31
2016-11-12T03:34:33.430Z,78.84
2016-11-12T03:34:55.154Z,78.27
2016-11-12T03:35:16.887Z,78.30
2016-11-12T03:35:38.619Z,78.22
2016-11-12T03:36:00.349Z,78.50
2016-11-12T03:36:22.102Z,78.65
2016-11-12T03:36:43.827Z,78.44
2016-11-12T03:37:05.566Z,78.21
2016-11-12T03:37:27.298Z,77.90
2016-11-12T03:37:49.027Z,78.11
2016-11-12T03:38:10.759Z,78.00
2016-11-12T03:38:32.515Z,78.06
2016-11-12T03:38:54.237Z,78.33
2016-11-12T03:39:15.966Z,78.29
2016-11-12T03:39:37.692Z,78.40
2016-11-12T03:39:59.410Z,78.57
2016-11-12T03:40:21.135Z,78.58
2016-11-12T03:40:42.864Z,78.74
2016-11-12T03:41:04.590Z,79.00
2016-11-12T03:41:26.309Z,79.13
2016-11-12T03:41:48.029Z,78.89
2016-11-12T03:42:09.777Z,78.88
2016-11-12T03:42:31.509Z,78.95
2016-11-12T03:42:53.235Z,78.79
2016-11-12T03:43:14.963Z,78.78
2016-11-12T03:43:36.691Z,79.04
2016-11-12T03:43:58.417Z,78.97
2016-11-12T03:44:20.148Z,79.16
2016-11-12T03:44:41.868Z,79.42
2016-11-12T03:45:03.595Z,79.56
2016-11-12T03:45:25.316Z,79.56
2016-11-12T03:45:47.052Z,79.62
2016-11-12T03:46:08.771Z,79.35
2016-11-12T03:46:30.499Z,79.41
2016-11-12T03:46:52.219Z,79.42
2016-11-12T03:47:13.939Z,79.67
2016-11-12T03:47:35.663Z,79.74
2016-11-12T03:47:57.400Z,79.87
2016-11-12T03:48:19.115Z,79.87
2016-11-12T03:48:40.841Z,79.89
2016-11-12T03:49:02.561Z,79.90
2016-11-12T03:49:24.294Z,80.06
2016-11-12T03:49:46.065Z,79.98
2016-11-12T03:50:07.865Z,79.95
2016-11-12T03:50:29.590Z,80.34
2016-11-12T03:50:51.316Z,80.08
2016-11-12T03:51:13.034Z,80.01
2016-11-12T03:51:34.781Z,79.93
2016-11-12T03:51:56.504Z,80.15
2016-11-12T03:52:18.220Z,80.14
2016-11-12T03:52:39.953Z,79.94
2016-11-12T03:53:01.675Z,79.94
2016-11-12T03:53:23.405Z,80.18
2016-11-12T03:53:45.143Z,80.38
2016-11-12T03:54:07.004Z,80.36
2016-11-12T03:54:28.739Z,80.44
2016-11-12T03:54:50.465Z,80.57
2016-11-12T03:55:12.184Z,80.27
2016-11-12T03:55:33.907Z,80.47
2016-11-12T03:55:55.634Z,80.51
2016-11-12T03:56:17.350Z,80.41
2016-11-12T03:56:39.083Z,80.20
2016-11-12T03:57:00.815Z,80.01
2016-11-12T03:57:22.533Z,79.81
2016-11-12T03:57:44.262Z,79.58
2016-11-12T03:58:05.995Z,79.62
2016-11-12T03:58:27.806Z,79.55
2016-11-12T03:58:49.611Z,79.58
2016-11-12T03:59:11.353Z,79.58
2016-11-12T03:59:33.077Z,79.77
2016-11-12T03:59:54.806Z,79.51
2016-11-12T04:00:16.539Z,79.59
2016-11-12T04:00:38.265Z,79.51
2016-11-12T04:00:59.989Z,79.81
2016-11-12T04:01:21.714Z,80.16
2016-11-12T04:01:43.450Z,79.95
2016-11-12T04:02:05.175Z,79.80
2016-11-12T04:02:26.897Z,79.69
2016-11-12T04:02:48.620Z,79.46
2016-11-12T04:03:10.429Z,79.46
2016-11-12T04:03:32.149Z,79.21
2016-11-12T04:03:53.869Z,79.40
2016-11-12T04:04:15.594Z,79.47
2016-11-12T04:04:37.328Z,79.81
2016-11-12T04:04:59.050Z,79.50
2016-11-12T04:05:20.781Z,79.37
2016-11-12T04:05:42.512Z,79.62
2016-11-12T04:06:04.233Z,79.76
2016-11-12T04:06:25.967Z,79.40
2016-11-12T04:06:47.690Z,79.16
2016-11-12T04:07:09.422Z,79.33
2016-11-12T04:07:31.185Z,79.53
2016-11-12T04:07:52.947Z,79.71
2016-11-12T04:08:14.670Z,79.86
2016-11-12T04:08:36.409Z,79.58
2016-11-12T04:08:58.136Z,79.56
2016-11-12T04:09:19.859Z,79.90
2016-11-12T04:09:41.598Z,80.45
2016-11-12T04:10:03.362Z,80.43
2016-11-12T04:10:25.085Z,80.44
2016-11-12T04:10:46.816Z,80.47
2016-11-12T04:11:08.541Z,80.23
2016-11-12T04:11:30.260Z,80.01
2016-11-12T04:11:51.987Z,80.29
2016-11-12T04:12:13.709Z,80.32
2016-11-12T04:12:35.426Z,80.06
2016-11-12T04:12:57.159Z,80.18
2016-11-12T04:13:18.885Z,80.12
2016-11-12T04:13:40.625Z,80.10
2016-11-12T04:14:02.356Z,79.82
2016-11-12T04:14:24.090Z,79.65
2016-11-12T04:14:45.817Z,79.47
2016-11-12T04:15:07.542Z,79.40
2016-11-12T04:15:29.390Z,79.76
2016-11-12T04:15:51.101Z,79.97
2016-11-12T04:16:12.819Z,79.91
2016-11-12T04:16:34.545Z,80.22
2016-11-12T04:16:56.298Z,80.26
2016-11-12T04:17:18.016Z,80.11
2016-11-12T04:17:39.748Z,80.00
2016-11-12T04:18:01.465Z,80.09
2016-11-12T04:18:23.190Z,80.19
2016-11-12T04:18:44.925Z,80.43
2016-11-12T04:19:06.657Z,80.70
2016-11-12T04:19:28.397Z,80.87
2016-11-12T04:19:50.122Z,80.90
2016-11-12T04:20:11.844Z,80.99
2016-11-12T04:20:33.580Z,80.74
2016-11-12T04:20:55.327Z,80.78
2016-11-12T04:21:17.063Z,80.72
2016-11-12T04:21:38.782Z,80.29
2016-11-12T04:22:00.507Z,80.16
2016-11-12T04:22:22.228Z,80.09
2016-11-12T04:22:43.948Z,79.95
2016-11-12T04:23:05.685Z,79.72
2016-11-12T04:23:27.404Z,79.67
2016-11-12T04:23:49.128Z,79.93
2016-11-12T04:24:10.847Z,80.08
2016-11-12T04:24:32.582Z,80.35
2016-11-12T04:24:54.304Z,80.44
2016-11-12T04:25:16.032Z,80.52
2016-11-12T04:25:37.767Z,80.67
2016-11-12T04:25:59.511Z,80.93
2016-11-12T04:26:21.304Z,80.66
2016-11-12T04:26:43.027Z,80.69
2016-11-12T04:27:04.752Z,80.75
2016-11-12T04:27:26.471Z,80.85
2016-11-12T04:27:48.194Z,80.92
2016-11-12T04:28:09.956Z,80.86
2016-11-12T04:28:31.684Z,80.55
2016-11-12T04:28:53.411Z,80.59
2016-11-12T04:29:15.127Z,80.67
2016-11-12T04:29:36.848Z,80.62
2016-11-12T04:29:58.570Z,81.07
2016-11-12T04:30:20.302Z,81.16
2016-11-12T04:30:42.034Z,81.24
2016-11-12T04:31:03.767Z,81.41
2016-11-12T04:31:25.497Z,81.56
2016-11-12T04:31:47.224Z,81.98
2016-11-12T04:32:08.948Z,81.94
2016-11-12T04:32:30.673Z,81.85
2016-11-12T04:32:52.413Z,81.59
2016-11-12T04:33:14.203Z,81.40
2016-11-12T04:33:35.907Z,81.19
2016-11-12T04:33:57.625Z,81.13
2016-11-12T04:34:19.346Z,81.11
2016-11-12T04:34:41.074Z,81.16
2016-11-12T04:35:02.799Z,81.38
2016-11-12T04:35:24.527Z,81.53
2016-11-12T04:35:46.240Z,81.24
2016-11-12T04:36:07.967Z,81.16
2016-11-12T04:36:29.685Z,81.27
2016-11-12T04:36:51.409Z,81.47
2016-11-12T04:37:13.138Z,81.42
2016-11-12T04:37:34.883Z,81.46
2016-11-12T04:37:56.689Z,81.48
2016-11-12T04:38:18.435Z,81.53
2016-11-12T04:38:40.156Z,81.64
2016-11-12T04:39:01.873Z,81.83
2016-11-12T04:39:23.612Z,81.94
2016-11-12T04:39:45.362Z,82.04
2016-11-12T04:40:07.080Z,82.21